createdAt,value
2017-09-01T00:01:01.748Z,58.59
2017-09-01T00:02:10.721Z,58.69
2017-09-01T00:03:20.013Z,58.78
2017-09-01T00:04:29.316Z,58.69
2017-09-01T00:05:38.455Z,58.78
2017-09-01T00:06:47.428Z,58.56
2017-09-01T00:07:56.417Z,58.69
2017-09-01T00:09:05.713Z,58.78
2017-09-01T00:10:14.381Z,58.59
2017-09-01T00:11:23.831Z,58.88
2017-09-01T00:12:33.505Z,58.69
2017-09-01T00:13:42.174Z,58.78
2017-09-01T00:14:51.161Z,58.75
2017-09-01T00:16:00.448Z,58.56
2017-09-01T00:17:09.585Z,58.78
2017-09-01T00:18:18.553Z,58.59
2017-09-01T00:19:27.213Z,58.75
2017-09-01T00:20:36.205Z,58.59
2017-09-01T00:21:45.493Z,58.88
2017-09-01T00:22:54.931Z,58.88
2017-09-01T00:24:04.239Z,58.75
2017-09-01T00:25:13.233Z,58.78
2017-09-01T00:26:22.219Z,58.2
2017-09-01T00:27:31.850Z,58.17
2017-09-01T00:28:40.525Z,58.01
2017-09-01T00:29:49.524Z,58.01
2017-09-01T00:30:58.523Z,58.17
2017-09-01T00:32:07.200Z,58.75
2017-09-01T00:33:16.523Z,58.17
2017-09-01T00:34:26.145Z,58.88
2017-09-01T00:35:35.176Z,58.2
2017-09-01T00:36:43.826Z,58.78
2017-09-01T00:37:52.480Z,58.2
2017-09-01T00:39:01.471Z,57.98
2017-09-01T00:40:10.511Z,58.78
2017-09-01T00:41:19.487Z,58.01
2017-09-01T00:42:28.776Z,58.75
2017-09-01T00:43:38.081Z,58.85
2017-09-01T00:44:47.063Z,58.75
2017-09-01T00:45:56.137Z,58.59
2017-09-01T00:47:05.109Z,58.47
2017-09-01T00:48:13.848Z,58.78
2017-09-01T00:49:22.810Z,58.47
2017-09-01T00:50:31.787Z,58.75
2017-09-01T00:51:41.227Z,58.47
2017-09-01T00:52:50.204Z,58.75
2017-09-01T00:53:59.492Z,58.75
2017-09-01T00:55:08.177Z,58.75
2017-09-01T00:56:17.468Z,58.78
2017-09-01T00:57:26.450Z,58.07
2017-09-01T00:58:35.422Z,58.56
2017-09-01T00:59:44.742Z,58.56
2017-09-01T01:00:53.726Z,58.56
2017-09-01T01:02:03.020Z,58.59
2017-09-01T01:03:12.460Z,58.65
2017-09-01T01:04:21.750Z,58.75
2017-09-01T01:05:30.788Z,58.56
2017-09-01T01:06:40.731Z,58.65
2017-09-01T01:07:49.398Z,58.56
2017-09-01T01:08:59.009Z,58.56
2017-09-01T01:10:07.989Z,58.75
2017-09-01T01:11:17.286Z,58.65
2017-09-01T01:12:26.267Z,58.75
2017-09-01T01:13:35.555Z,58.65
2017-09-01T01:14:44.546Z,58.56
2017-09-01T01:15:53.525Z,58.65
2017-09-01T01:17:02.507Z,58.56
2017-09-01T01:18:12.117Z,58.65
2017-09-01T01:19:21.101Z,58.75
2017-09-01T01:20:30.133Z,58.56
2017-09-01T01:21:38.798Z,58.75
2017-09-01T01:22:47.775Z,58.65
2017-09-01T01:23:56.753Z,58.65
2017-09-01T01:25:06.073Z,58.75
2017-09-01T01:26:15.676Z,58.75
2017-09-01T01:27:25.297Z,58.65
2017-09-01T01:28:34.610Z,58.65
2017-09-01T01:29:43.302Z,58.65
2017-09-01T01:30:52.319Z,58.65
2017-09-01T01:32:01.349Z,58.56
2017-09-01T01:33:10.329Z,58.75
2017-09-01T01:34:19.623Z,58.85
2017-09-01T01:35:28.597Z,58.56
2017-09-01T01:36:37.891Z,58.75
2017-09-01T01:37:47.040Z,58.75
2017-09-01T01:38:56.342Z,58.65
2017-09-01T01:40:05.016Z,58.56
2017-09-01T01:41:14.001Z,58.56
2017-09-01T01:42:23.290Z,58.75
2017-09-01T01:43:32.916Z,58.56
2017-09-01T01:44:42.831Z,58.56
2017-09-01T01:45:51.496Z,58.75
2017-09-01T01:47:00.470Z,57.98
2017-09-01T01:48:09.762Z,57.98
2017-09-01T01:49:18.737Z,58.75
2017-09-01T01:50:28.030Z,57.98
2017-09-01T01:51:37.350Z,58.85
2017-09-01T01:52:46.327Z,58.65
2017-09-01T01:53:55.631Z,58.56
2017-09-01T01:55:05.289Z,58.85
2017-09-01T01:56:13.951Z,58.75
2017-09-01T01:57:22.623Z,58.75
2017-09-01T01:58:32.241Z,58.56
2017-09-01T01:59:41.252Z,58.75
2017-09-01T02:00:50.064Z,58.75
2017-09-01T02:01:59.391Z,58.56
2017-09-01T02:03:08.051Z,58.65
2017-09-01T02:04:16.710Z,58.56
2017-09-01T02:05:25.681Z,58.85
2017-09-01T02:06:34.650Z,58.85
2017-09-01T02:07:43.323Z,58.75
2017-09-01T02:08:52.301Z,58.56
2017-09-01T02:10:01.910Z,58.17
2017-09-01T02:11:11.196Z,58.75
2017-09-01T02:12:20.595Z,58.65
2017-09-01T02:13:29.582Z,58.85
2017-09-01T02:14:38.881Z,58.65
2017-09-01T02:15:48.178Z,58.47
2017-09-01T02:16:57.486Z,58.75
2017-09-01T02:18:07.251Z,58.56
2017-09-01T02:19:15.912Z,58.56
2017-09-01T02:20:25.202Z,58.65
2017-09-01T02:21:34.216Z,58.65
2017-09-01T02:22:43.189Z,58.85
2017-09-01T02:23:52.325Z,58.75
2017-09-01T02:25:01.609Z,58.56
2017-09-01T02:26:10.593Z,58.75
2017-09-01T02:27:19.582Z,58.85
2017-09-01T02:28:28.870Z,57.98
2017-09-01T02:29:37.951Z,58.75
2017-09-01T02:30:47.263Z,57.98
2017-09-01T02:31:56.238Z,58.75
2017-09-01T02:33:04.908Z,58.75
2017-09-01T02:34:14.526Z,58.17
2017-09-01T02:35:23.298Z,58.85
2017-09-01T02:36:32.278Z,58.75
2017-09-01T02:37:40.957Z,58.07
2017-09-01T02:38:49.617Z,58.75
2017-09-01T02:39:58.934Z,58.56
2017-09-01T02:41:08.059Z,58.75
2017-09-01T02:42:17.050Z,58.75
2017-09-01T02:43:26.032Z,58.75
2017-09-01T02:44:35.013Z,58.47
2017-09-01T02:45:44.360Z,58.17
2017-09-01T02:46:53.965Z,58.75
2017-09-01T02:48:02.944Z,58.07
2017-09-01T02:49:11.918Z,58.65
2017-09-01T02:50:21.530Z,58.17
2017-09-01T02:51:30.528Z,58.75
2017-09-01T02:52:39.503Z,58.17
2017-09-01T02:53:48.487Z,58.75
2017-09-01T02:54:57.779Z,58.75
2017-09-01T02:56:06.757Z,58.47
2017-09-01T02:57:15.430Z,58.75
2017-09-01T02:58:24.254Z,58.53
2017-09-01T02:59:33.873Z,58.85
2017-09-01T03:00:43.170Z,58.75
2017-09-01T03:01:52.781Z,58.75
2017-09-01T03:03:01.779Z,57.98
2017-09-01T03:04:11.180Z,58.56
2017-09-01T03:05:20.158Z,58.75
2017-09-01T03:06:29.447Z,58.75
2017-09-01T03:07:38.423Z,58.56
2017-09-01T03:08:47.403Z,58.85
2017-09-01T03:09:56.528Z,58.75
2017-09-01T03:11:05.507Z,58.72
2017-09-01T03:12:14.481Z,58.65
2017-09-01T03:13:23.461Z,58.56
2017-09-01T03:14:32.490Z,58.56
2017-09-01T03:15:42.241Z,58.65
2017-09-01T03:16:51.208Z,58.56
2017-09-01T03:17:59.871Z,58.56
2017-09-01T03:19:08.546Z,58.65
2017-09-01T03:20:17.530Z,58.75
2017-09-01T03:21:26.295Z,58.65
2017-09-01T03:22:34.971Z,58.75
2017-09-01T03:23:44.259Z,58.82
2017-09-01T03:24:53.553Z,58.56
2017-09-01T03:26:02.850Z,58.85
2017-09-01T03:27:12.293Z,57.98
2017-09-01T03:28:21.647Z,58.75
2017-09-01T03:29:30.948Z,58.56
2017-09-01T03:30:40.561Z,58.56
2017-09-01T03:31:49.871Z,58.72
2017-09-01T03:32:59.010Z,58.63
2017-09-01T03:34:07.982Z,58.75
2017-09-01T03:35:17.282Z,58.65
2017-09-01T03:36:26.266Z,58.56
2017-09-01T03:37:35.862Z,58.65
2017-09-01T03:38:45.300Z,58.63
2017-09-01T03:39:54.584Z,58.65
2017-09-01T03:41:03.242Z,58.75
2017-09-01T03:42:12.535Z,58.65
2017-09-01T03:43:21.521Z,58.56
2017-09-01T03:44:30.959Z,58.65
2017-09-01T03:45:39.950Z,58.65
2017-09-01T03:46:48.938Z,58.65
2017-09-01T03:47:57.607Z,58.53
2017-09-01T03:49:06.597Z,58.53
2017-09-01T03:50:16.200Z,58.72
2017-09-01T03:51:24.855Z,58.85
2017-09-01T03:52:33.529Z,58.65
2017-09-01T03:53:42.182Z,58.75
2017-09-01T03:54:51.175Z,58.65
2017-09-01T03:56:00.291Z,58.75
2017-09-01T03:57:09.264Z,58.56
2017-09-01T03:58:17.929Z,58.72
2017-09-01T03:59:26.584Z,58.85
2017-09-01T04:00:35.243Z,57.98
2017-09-01T04:01:44.757Z,58.82
2017-09-01T04:02:53.754Z,58.85
2017-09-01T04:04:02.427Z,58.65
2017-09-01T04:05:11.402Z,58.75
2017-09-01T04:06:20.381Z,58.75
2017-09-01T04:07:29.343Z,58.04
2017-09-01T04:08:38.633Z,57.98
2017-09-01T04:09:47.609Z,58.72
2017-09-01T04:10:56.934Z,58.75
2017-09-01T04:12:05.910Z,58.65
2017-09-01T04:13:15.050Z,58.75
2017-09-01T04:14:24.037Z,58.56
2017-09-01T04:15:32.700Z,58.65
2017-09-01T04:16:41.358Z,58.53
2017-09-01T04:17:50.330Z,58.56
2017-09-01T04:18:59.612Z,58.65
2017-09-01T04:20:08.617Z,58.63
2017-09-01T04:21:17.280Z,58.75
2017-09-01T04:22:25.936Z,58.75
2017-09-01T04:23:34.917Z,57.98
2017-09-01T04:24:44.049Z,57.98
2017-09-01T04:25:53.019Z,58.85
2017-09-01T04:27:02.321Z,58.17
2017-09-01T04:28:11.624Z,58.17
2017-09-01T04:29:20.618Z,57.98
2017-09-01T04:30:29.912Z,58.85
2017-09-01T04:31:39.198Z,58.72
2017-09-01T04:32:48.558Z,58.75
2017-09-01T04:33:57.215Z,58.04
2017-09-01T04:35:05.879Z,58.72
2017-09-01T04:36:14.560Z,58.82
2017-09-01T04:37:23.560Z,58.85
2017-09-01T04:38:32.852Z,57.95
2017-09-01T04:39:42.139Z,58.07
2017-09-01T04:40:51.765Z,57.98
2017-09-01T04:42:01.169Z,57.98
2017-09-01T04:43:10.143Z,58.17
2017-09-01T04:44:19.437Z,58.17
2017-09-01T04:45:28.423Z,58.04
2017-09-01T04:46:37.728Z,58.24
2017-09-01T04:47:46.872Z,58.07
2017-09-01T04:48:56.165Z,58.27
2017-09-01T04:50:05.462Z,58.24
2017-09-01T04:51:14.508Z,58.24
2017-09-01T04:52:23.487Z,58.07
2017-09-01T04:53:32.620Z,58.44
2017-09-01T04:54:41.287Z,58.75
2017-09-01T04:55:50.590Z,58.17
2017-09-01T04:56:59.587Z,57.98
2017-09-01T04:58:09.202Z,57.98
2017-09-01T04:59:18.281Z,57.98
2017-09-01T05:00:27.249Z,57.98
2017-09-01T05:01:36.246Z,57.98
2017-09-01T05:02:45.567Z,57.88
2017-09-01T05:03:54.536Z,57.98
2017-09-01T05:05:03.603Z,57.79
2017-09-01T05:06:12.907Z,57.88
2017-09-01T05:07:22.206Z,58.07
2017-09-01T05:08:31.182Z,57.95
2017-09-01T05:09:39.874Z,58.07
2017-09-01T05:10:48.860Z,57.86
2017-09-01T05:11:57.521Z,58.07
2017-09-01T05:13:06.826Z,58.07
2017-09-01T05:14:15.821Z,58.07
2017-09-01T05:15:25.422Z,57.98
2017-09-01T05:16:35.449Z,57.98
2017-09-01T05:17:44.127Z,58.17
2017-09-01T05:18:53.132Z,58.07
2017-09-01T05:20:01.808Z,58.07
2017-09-01T05:21:11.116Z,58.17
2017-09-01T05:22:19.787Z,58.24
2017-09-01T05:23:29.119Z,58.17
2017-09-01T05:24:39.078Z,57.88
2017-09-01T05:25:48.057Z,57.98
2017-09-01T05:26:57.054Z,57.88
2017-09-01T05:28:06.703Z,57.79
2017-09-01T05:29:15.680Z,57.69
2017-09-01T05:30:24.330Z,57.88
2017-09-01T05:31:32.998Z,57.98
2017-09-01T05:32:42.030Z,57.79
2017-09-01T05:33:51.069Z,57.79
2017-09-01T05:35:00.372Z,57.98
2017-09-01T05:36:09.683Z,57.88
2017-09-01T05:37:18.656Z,57.79
2017-09-01T05:38:27.642Z,58.07
2017-09-01T05:39:36.949Z,57.59
2017-09-01T05:40:45.962Z,57.59
2017-09-01T05:41:54.939Z,57.59
2017-09-01T05:43:04.550Z,57.59
2017-09-01T05:44:13.215Z,57.4
2017-09-01T05:45:22.286Z,57.3
2017-09-01T05:46:31.267Z,57.3
2017-09-01T05:47:39.969Z,57.2
2017-09-01T05:48:48.940Z,57.01
2017-09-01T05:49:57.913Z,57.3
2017-09-01T05:51:07.038Z,57.43
2017-09-01T05:52:16.023Z,57.23
2017-09-01T05:53:25.333Z,56.85
2017-09-01T05:54:34.629Z,56.85
2017-09-01T05:55:43.610Z,57.23
2017-09-01T05:56:52.443Z,56.56
2017-09-01T05:58:01.437Z,56.36
2017-09-01T05:59:10.417Z,56.85
2017-09-01T06:00:19.401Z,56.75
2017-09-01T06:01:28.377Z,57.04
2017-09-01T06:02:37.346Z,57.04
2017-09-01T06:03:46.323Z,56.85
2017-09-01T06:04:55.636Z,56.56
2017-09-01T06:06:04.624Z,56.36
2017-09-01T06:07:13.274Z,56.65
2017-09-01T06:08:22.294Z,56.65
2017-09-01T06:09:31.889Z,56.65
2017-09-01T06:10:40.865Z,56.46
2017-09-01T06:11:50.164Z,56.75
2017-09-01T06:12:59.771Z,56.75
2017-09-01T06:14:08.908Z,56.75
2017-09-01T06:15:18.514Z,56.94
2017-09-01T06:16:27.202Z,56.36
2017-09-01T06:17:35.870Z,56.07
2017-09-01T06:18:44.535Z,56.07
2017-09-01T06:19:53.303Z,56.36
2017-09-01T06:21:02.601Z,56.36
2017-09-01T06:22:11.587Z,56.46
2017-09-01T06:23:20.894Z,56.36
2017-09-01T06:24:30.209Z,56.26
2017-09-01T06:25:39.512Z,56.26
2017-09-01T06:26:48.807Z,56.56
2017-09-01T06:27:58.101Z,56.16
2017-09-01T06:29:07.076Z,56.36
2017-09-01T06:30:16.049Z,56.36
2017-09-01T06:31:25.375Z,56.29
2017-09-01T06:32:34.374Z,56.1
2017-09-01T06:33:43.730Z,56.16
2017-09-01T06:34:52.704Z,56.49
2017-09-01T06:36:01.371Z,56.49
2017-09-01T06:37:10.187Z,56.59
2017-09-01T06:38:19.477Z,56.49
2017-09-01T06:39:28.452Z,56.2
2017-09-01T06:40:37.453Z,56.2
2017-09-01T06:41:46.758Z,56.2
2017-09-01T06:42:56.103Z,56.26
2017-09-01T06:44:05.079Z,56.2
2017-09-01T06:45:13.737Z,56.16
2017-09-01T06:46:22.726Z,56.2
2017-09-01T06:47:31.390Z,56.29
2017-09-01T06:48:40.681Z,55.9
2017-09-01T06:49:49.658Z,56.1
2017-09-01T06:50:58.630Z,56
2017-09-01T06:52:07.291Z,56
2017-09-01T06:53:16.273Z,55.9
2017-09-01T06:54:24.944Z,56.29
2017-09-01T06:55:33.911Z,56
2017-09-01T06:56:42.580Z,56.1
2017-09-01T06:57:51.554Z,55.62
2017-09-01T06:59:00.537Z,55.81
2017-09-01T07:00:09.984Z,55.71
2017-09-01T07:01:19.592Z,55.32
2017-09-01T07:02:29.234Z,55.52
2017-09-01T07:03:38.855Z,55.62
2017-09-01T07:04:48.468Z,55.54
2017-09-01T07:05:57.756Z,55.62
2017-09-01T07:07:07.389Z,55.42
2017-09-01T07:08:16.371Z,55.13
2017-09-01T07:09:25.399Z,55.13
2017-09-01T07:10:34.380Z,55.44
2017-09-01T07:11:43.389Z,55.35
2017-09-01T07:12:52.380Z,55.16
2017-09-01T07:14:01.366Z,55.26
2017-09-01T07:15:10.371Z,55.16
2017-09-01T07:16:19.039Z,55.35
2017-09-01T07:17:28.490Z,55.26
2017-09-01T07:18:37.488Z,55.26
2017-09-01T07:19:46.792Z,55.16
2017-09-01T07:20:56.088Z,55.35
2017-09-01T07:22:05.384Z,55.16
2017-09-01T07:23:14.823Z,55.06
2017-09-01T07:24:24.451Z,55.44
2017-09-01T07:25:33.750Z,55.26
2017-09-01T07:26:43.358Z,55.26
2017-09-01T07:27:52.975Z,55.35
2017-09-01T07:29:02.315Z,55.26
2017-09-01T07:30:11.950Z,55.26
2017-09-01T07:31:20.905Z,55.06
2017-09-01T07:32:30.553Z,55.44
2017-09-01T07:33:39.212Z,55.06
2017-09-01T07:34:48.028Z,55.06
2017-09-01T07:35:57.648Z,55.06
2017-09-01T07:37:06.688Z,55.26
2017-09-01T07:38:15.669Z,55.44
2017-09-01T07:39:24.642Z,55.35
2017-09-01T07:40:33.771Z,55.44
2017-09-01T07:41:43.057Z,55.64
2017-09-01T07:42:52.053Z,55.64
2017-09-01T07:44:00.749Z,55.74
2017-09-01T07:45:10.039Z,55.64
2017-09-01T07:46:19.067Z,55.62
2017-09-01T07:47:28.376Z,55.74
2017-09-01T07:48:37.671Z,55.44
2017-09-01T07:49:46.960Z,55.26
2017-09-01T07:50:55.934Z,54.67
2017-09-01T07:52:05.386Z,54.38
2017-09-01T07:53:14.385Z,54.41
2017-09-01T07:54:23.990Z,54.41
2017-09-01T07:55:33.286Z,54.41
2017-09-01T07:56:42.605Z,54.6
2017-09-01T07:57:52.034Z,54.6
2017-09-01T07:59:01.637Z,54.21
2017-09-01T08:00:10.939Z,54.31
2017-09-01T08:01:19.929Z,54.5
2017-09-01T08:02:28.906Z,54.7
2017-09-01T08:03:38.867Z,54.41
2017-09-01T08:04:48.501Z,54.7
2017-09-01T08:05:57.176Z,54.21
2017-09-01T08:07:06.160Z,54.6
2017-09-01T08:08:15.149Z,54.6
2017-09-01T08:09:24.588Z,54.11
2017-09-01T08:10:33.252Z,54.8
2017-09-01T08:11:42.256Z,54.8
2017-09-01T08:12:51.227Z,54.5
2017-09-01T08:14:00.828Z,54.8
2017-09-01T08:15:10.221Z,54.6
2017-09-01T08:16:18.890Z,54.7
2017-09-01T08:17:28.177Z,54.5
2017-09-01T08:18:50.201Z,54.7
2017-09-01T08:19:59.863Z,54.99
2017-09-01T08:21:08.987Z,54.9
2017-09-01T08:22:18.599Z,54.7
2017-09-01T08:23:27.330Z,54.67
2017-09-01T08:24:36.298Z,54.48
2017-09-01T08:25:45.338Z,54.58
2017-09-01T08:26:53.997Z,54.96
2017-09-01T08:28:02.664Z,55.16
2017-09-01T08:29:11.339Z,55.16
2017-09-01T08:30:20.013Z,55.16
2017-09-01T08:31:29.127Z,54.86
2017-09-01T08:32:37.802Z,55.06
2017-09-01T08:33:46.778Z,55.06
2017-09-01T08:34:55.749Z,54.77
2017-09-01T08:36:05.372Z,54.96
2017-09-01T08:37:14.714Z,55.16
2017-09-01T08:38:23.391Z,55.16
2017-09-01T08:39:32.679Z,55.16
2017-09-01T08:40:41.657Z,55.35
2017-09-01T08:41:50.660Z,55.26
2017-09-01T08:42:59.311Z,55.44
2017-09-01T08:44:08.668Z,55.26
2017-09-01T08:45:17.340Z,55.16
2017-09-01T08:46:26.329Z,55.54
2017-09-01T08:47:35.633Z,55.44
2017-09-01T08:48:45.095Z,55.64
2017-09-01T08:49:54.448Z,55.74
2017-09-01T08:51:03.727Z,55.64
2017-09-01T08:52:12.701Z,55.64
2017-09-01T08:53:21.989Z,55.74
2017-09-01T08:54:31.427Z,55.64
2017-09-01T08:55:40.411Z,55.83
2017-09-01T08:56:49.387Z,55.62
2017-09-01T08:57:58.360Z,55.64
2017-09-01T08:59:07.965Z,55.42
2017-09-01T09:00:17.594Z,55.52
2017-09-01T09:01:27.202Z,55.83
2017-09-01T09:02:36.494Z,55.52
2017-09-01T09:03:45.498Z,55.62
2017-09-01T09:04:54.481Z,55.81
2017-09-01T09:06:04.433Z,55.81
2017-09-01T09:07:13.419Z,55.9
2017-09-01T09:08:22.081Z,56.2
2017-09-01T09:09:31.417Z,55.81
2017-09-01T09:10:40.706Z,55.9
2017-09-01T09:11:50.136Z,56
2017-09-01T09:12:59.123Z,56.2
2017-09-01T09:14:07.788Z,56
2017-09-01T09:15:17.064Z,56
2017-09-01T09:16:26.033Z,56
2017-09-01T09:17:34.993Z,55.81
2017-09-01T09:18:43.968Z,56
2017-09-01T09:19:53.573Z,55.81
2017-09-01T09:21:02.260Z,56.1
2017-09-01T09:22:11.874Z,55.62
2017-09-01T09:23:20.995Z,56
2017-09-01T09:24:30.613Z,56.1
2017-09-01T09:25:40.221Z,56
2017-09-01T09:26:48.885Z,56
2017-09-01T09:27:57.854Z,56
2017-09-01T09:29:06.677Z,55.81
2017-09-01T09:30:15.651Z,56.1
2017-09-01T09:31:24.634Z,56.1
2017-09-01T09:32:34.237Z,56
2017-09-01T09:33:42.928Z,56
2017-09-01T09:34:51.918Z,56.1
2017-09-01T09:36:01.530Z,56.1
2017-09-01T09:37:10.821Z,56.1
2017-09-01T09:38:20.104Z,56.1
2017-09-01T09:39:29.715Z,56.1
2017-09-01T09:40:39.065Z,56.2
2017-09-01T09:41:48.056Z,56.1
2017-09-01T09:42:56.714Z,55.71
2017-09-01T09:44:06.001Z,56
2017-09-01T09:45:14.987Z,56
2017-09-01T09:46:24.945Z,55.9
2017-09-01T09:47:33.595Z,55.9
2017-09-01T09:48:42.915Z,56.1
2017-09-01T09:49:51.897Z,56
2017-09-01T09:51:00.565Z,56.2
2017-09-01T09:52:09.699Z,56.1
2017-09-01T09:53:18.374Z,56
2017-09-01T09:54:27.698Z,56
2017-09-01T09:55:36.679Z,56
2017-09-01T09:56:45.660Z,56
2017-09-01T09:57:54.671Z,55.9
2017-09-01T09:59:03.959Z,55.81
2017-09-01T10:00:12.628Z,55.81
2017-09-01T10:01:21.284Z,55.81
2017-09-01T10:02:30.589Z,55.9
2017-09-01T10:03:39.259Z,55.9
2017-09-01T10:04:47.932Z,55.9
2017-09-01T10:05:56.918Z,56.2
2017-09-01T10:07:06.527Z,56.1
2017-09-01T10:08:15.845Z,56
2017-09-01T10:09:25.552Z,55.9
2017-09-01T10:10:34.216Z,56
2017-09-01T10:11:43.197Z,55.81
2017-09-01T10:12:52.169Z,55.52
2017-09-01T10:14:00.852Z,55.62
2017-09-01T10:15:09.904Z,55.62
2017-09-01T10:16:19.187Z,55.81
2017-09-01T10:17:28.474Z,55.71
2017-09-01T10:18:37.450Z,55.52
2017-09-01T10:19:46.420Z,55.42
2017-09-01T10:20:55.253Z,55.04
2017-09-01T10:22:05.169Z,55.13
2017-09-01T10:23:14.159Z,55.42
2017-09-01T10:24:23.144Z,55.22
2017-09-01T10:25:32.115Z,55.42
2017-09-01T10:26:41.101Z,55.04
2017-09-01T10:27:49.775Z,55.32
2017-09-01T10:28:58.740Z,55.32
2017-09-01T10:30:07.399Z,55.16
2017-09-01T10:31:16.065Z,55.13
2017-09-01T10:32:24.868Z,55.42
2017-09-01T10:33:33.524Z,55.42
2017-09-01T10:34:42.827Z,55.42
2017-09-01T10:35:52.126Z,55.42
2017-09-01T10:37:01.097Z,55.22
2017-09-01T10:38:09.811Z,55.13
2017-09-01T10:39:18.791Z,55.16
2017-09-01T10:40:28.105Z,54.94
2017-09-01T10:41:36.759Z,55.13
2017-09-01T10:42:45.427Z,54.94
2017-09-01T10:43:54.436Z,55.06
2017-09-01T10:45:03.412Z,55.06
2017-09-01T10:46:13.024Z,55.06
2017-09-01T10:47:22.327Z,54.96
2017-09-01T10:48:31.003Z,55.06
2017-09-01T10:49:40.968Z,54.77
2017-09-01T10:50:49.621Z,54.96
2017-09-01T10:51:58.897Z,55.26
2017-09-01T10:53:08.483Z,55.16
2017-09-01T10:54:17.801Z,54.96
2017-09-01T10:55:26.775Z,55.16
2017-09-01T10:56:35.428Z,55.16
2017-09-01T10:57:44.397Z,54.96
2017-09-01T10:58:53.366Z,55.16
2017-09-01T11:00:02.333Z,55.16
2017-09-01T11:01:11.406Z,55.44
2017-09-01T11:02:20.726Z,55.06
2017-09-01T11:03:30.019Z,55.16
2017-09-01T11:04:38.990Z,55.16
2017-09-01T11:05:48.273Z,55.16
2017-09-01T11:06:58.027Z,54.86
2017-09-01T11:08:07.069Z,54.96
2017-09-01T11:09:16.673Z,55.06
2017-09-01T11:10:25.639Z,54.86
2017-09-01T11:11:34.634Z,54.86
2017-09-01T11:12:44.236Z,55.06
2017-09-01T11:13:52.916Z,54.96
2017-09-01T11:15:01.591Z,54.86
2017-09-01T11:16:10.878Z,54.94
2017-09-01T11:17:19.872Z,55.04
2017-09-01T11:18:28.950Z,55.13
2017-09-01T11:19:37.914Z,55.22
2017-09-01T11:20:46.577Z,55.42
2017-09-01T11:21:55.568Z,55.22
2017-09-01T11:23:04.229Z,55.22
2017-09-01T11:24:13.877Z,55.13
2017-09-01T11:25:22.855Z,55.32
2017-09-01T11:26:31.822Z,55.32
2017-09-01T11:27:41.119Z,55.42
2017-09-01T11:28:50.111Z,55.32
2017-09-01T11:29:58.925Z,55.71
2017-09-01T11:31:08.544Z,55.52
2017-09-01T11:32:17.521Z,55.42
2017-09-01T11:33:26.493Z,55.62
2017-09-01T11:34:35.172Z,55.42
2017-09-01T11:35:44.605Z,55.42
2017-09-01T11:36:53.585Z,55.81
2017-09-01T11:38:02.590Z,55.62
2017-09-01T11:39:11.587Z,55.42
2017-09-01T11:40:20.578Z,55.62
2017-09-01T11:41:29.567Z,55.52
2017-09-01T11:42:38.244Z,55.42
2017-09-01T11:43:46.914Z,55.71
2017-09-01T11:44:55.595Z,55.42
2017-09-01T11:46:04.571Z,55.52
2017-09-01T11:47:13.897Z,55.42
2017-09-01T11:48:23.198Z,55.52
2017-09-01T11:49:32.169Z,55.62
2017-09-01T11:50:41.159Z,55.62
2017-09-01T11:51:50.445Z,55.81
2017-09-01T11:52:59.251Z,55.62
2017-09-01T11:54:08.544Z,55.62
2017-09-01T11:55:17.513Z,55.71
2017-09-01T11:56:26.500Z,55.71
2017-09-01T11:57:35.488Z,55.71
2017-09-01T11:58:44.476Z,55.62
2017-09-01T11:59:54.086Z,55.81
2017-09-01T12:01:03.386Z,55.71
2017-09-01T12:02:13.001Z,55.52
2017-09-01T12:03:21.670Z,55.71
2017-09-01T12:04:31.020Z,55.42
2017-09-01T12:05:40.630Z,55.71
2017-09-01T12:06:49.290Z,55.42
2017-09-01T12:07:58.289Z,55.42
2017-09-01T12:09:07.890Z,55.22
2017-09-01T12:10:17.010Z,55.04
2017-09-01T12:11:25.658Z,55.13
2017-09-01T12:12:35.329Z,55.42
2017-09-01T12:13:44.293Z,55.42
2017-09-01T12:14:53.267Z,55.32
2017-09-01T12:16:02.266Z,55.22
2017-09-01T12:17:11.572Z,55.22
2017-09-01T12:18:20.881Z,55.13
2017-09-01T12:19:29.851Z,55.22
2017-09-01T12:20:38.817Z,55.22
2017-09-01T12:21:48.576Z,55.22
2017-09-01T12:22:57.872Z,55.04
2017-09-01T12:24:07.479Z,54.94
2017-09-01T12:25:16.473Z,54.94
2017-09-01T12:26:25.452Z,54.74
2017-09-01T12:27:35.103Z,54.84
2017-09-01T12:28:43.753Z,55.13
2017-09-01T12:29:52.728Z,55.26
2017-09-01T12:31:02.644Z,55.16
2017-09-01T12:32:11.631Z,54.94
2017-09-01T12:33:20.922Z,55.16
2017-09-01T12:34:29.580Z,55.26
2017-09-01T12:35:38.893Z,55.06
2017-09-01T12:36:47.870Z,54.96
2017-09-01T12:37:56.521Z,54.67
2017-09-01T12:39:05.972Z,54.58
2017-09-01T12:40:14.940Z,54.58
2017-09-01T12:41:23.609Z,54.58
2017-09-01T12:42:32.896Z,54.58
2017-09-01T12:43:41.869Z,54.48
2017-09-01T12:44:51.162Z,54.67
2017-09-01T12:46:00.773Z,54.67
2017-09-01T12:47:09.759Z,54.77
2017-09-01T12:48:19.046Z,54.67
2017-09-01T12:49:27.722Z,54.58
2017-09-01T12:50:37.320Z,54.67
2017-09-01T12:51:45.992Z,54.67
2017-09-01T12:52:54.973Z,54.58
2017-09-01T12:54:03.943Z,54.67
2017-09-01T12:55:12.601Z,54.67
2017-09-01T12:56:21.745Z,54.67
2017-09-01T12:57:30.404Z,54.67
2017-09-01T12:58:39.379Z,54.58
2017-09-01T12:59:48.366Z,54.86
2017-09-01T13:00:57.662Z,54.77
2017-09-01T13:02:06.786Z,54.67
2017-09-01T13:03:16.384Z,54.77
2017-09-01T13:04:25.674Z,54.58
2017-09-01T13:05:34.963Z,54.77
2017-09-01T13:06:43.952Z,54.58
2017-09-01T13:07:52.924Z,54.67
2017-09-01T13:09:02.548Z,54.86
2017-09-01T13:10:11.200Z,54.77
2017-09-01T13:11:19.856Z,54.67
2017-09-01T13:12:28.510Z,54.58
2017-09-01T13:13:37.172Z,54.86
2017-09-01T13:14:45.825Z,54.58
2017-09-01T13:15:54.494Z,54.77
2017-09-01T13:17:03.807Z,54.77
2017-09-01T13:18:13.719Z,54.48
2017-09-01T13:19:23.054Z,54.67
2017-09-01T13:20:32.022Z,54.77
2017-09-01T13:21:40.992Z,54.48
2017-09-01T13:22:49.965Z,54.86
2017-09-01T13:23:59.259Z,54.77
2017-09-01T13:25:08.971Z,54.19
2017-09-01T13:26:17.621Z,54.58
2017-09-01T13:27:26.631Z,54.77
2017-09-01T13:28:35.633Z,54.48
2017-09-01T13:29:44.937Z,54.77
2017-09-01T13:30:54.593Z,54.86
2017-09-01T13:32:03.912Z,54.86
2017-09-01T13:33:12.945Z,54.86
2017-09-01T13:34:22.306Z,54.28
2017-09-01T13:35:31.305Z,54.86
2017-09-01T13:36:41.556Z,54.67
2017-09-01T13:37:50.854Z,54.67
2017-09-01T13:38:59.823Z,54.86
2017-09-01T13:40:09.423Z,54.58
2017-09-01T13:41:18.707Z,54.48
2017-09-01T13:42:28.174Z,54.86
2017-09-01T13:43:37.480Z,54.19
2017-09-01T13:44:46.138Z,54.58
2017-09-01T13:45:55.102Z,54.28
2017-09-01T13:47:04.085Z,54.19
2017-09-01T13:48:13.378Z,54.48
2017-09-01T13:49:22.664Z,54.09
2017-09-01T13:50:31.980Z,54.28
2017-09-01T13:51:40.972Z,54.58
2017-09-01T13:52:50.290Z,54.67
2017-09-01T13:53:59.271Z,54.67
2017-09-01T13:55:08.276Z,54.58
2017-09-01T13:56:17.305Z,54.58
2017-09-01T13:57:25.971Z,54.38
2017-09-01T13:58:34.950Z,54.38
2017-09-01T13:59:44.293Z,55.06
2017-09-01T14:00:53.292Z,54.58
2017-09-01T14:02:02.315Z,54.67
2017-09-01T14:03:11.606Z,54.86
2017-09-01T14:04:20.895Z,54.67
2017-09-01T14:05:30.877Z,54.67
2017-09-01T14:06:39.838Z,54.28
2017-09-01T14:07:48.500Z,54.67
2017-09-01T14:08:57.476Z,54.48
2017-09-01T14:10:06.451Z,54.09
2017-09-01T14:11:16.227Z,54.77
2017-09-01T14:12:24.883Z,54.67
2017-09-01T14:13:33.861Z,54.86
2017-09-01T14:14:42.839Z,54.48
2017-09-01T14:15:52.441Z,54.28
2017-09-01T14:17:02.119Z,54.77
2017-09-01T14:18:11.424Z,54.48
2017-09-01T14:19:20.395Z,54.48
2017-09-01T14:20:29.685Z,54.58
2017-09-01T14:21:38.350Z,54.58
2017-09-01T14:22:48.029Z,54.58
2017-09-01T14:23:57.004Z,54.77
2017-09-01T14:25:05.661Z,54.48
2017-09-01T14:26:14.321Z,54.48
2017-09-01T14:27:23.305Z,54.86
2017-09-01T14:28:32.756Z,54.77
2017-09-01T14:29:42.366Z,54.19
2017-09-01T14:30:51.036Z,54.19
2017-09-01T14:32:00.312Z,54.28
2017-09-01T14:33:09.314Z,54.67
2017-09-01T14:34:19.016Z,54.67
2017-09-01T14:35:28.003Z,54.48
2017-09-01T14:36:36.672Z,54.58
2017-09-01T14:37:45.975Z,54.19
2017-09-01T14:38:55.289Z,54.19
2017-09-01T14:40:04.733Z,54.86
2017-09-01T14:41:13.719Z,54.58
2017-09-01T14:42:22.716Z,54.58
2017-09-01T14:43:32.009Z,54.86
2017-09-01T14:44:40.987Z,54.58
2017-09-01T14:45:50.339Z,54.58
2017-09-01T14:46:59.003Z,54.96
2017-09-01T14:48:07.978Z,54.67
2017-09-01T14:49:16.645Z,54.58
2017-09-01T14:50:25.634Z,54.67
2017-09-01T14:51:34.768Z,54.86
2017-09-01T14:52:44.083Z,54.86
2017-09-01T14:53:53.380Z,54.77
2017-09-01T14:55:02.686Z,54.48